createdAt,value
2023-02-13T00:00:01.013Z,78
2023-02-13T00:04:01.183Z,78
2023-02-13T00:08:01.016Z,78
2023-02-13T00:12:01.079Z,78
2023-02-13T00:16:01.868Z,78
2023-02-13T00:20:01.413Z,78
2023-02-13T00:24:00.976Z,78
2023-02-13T00:28:01.125Z,78
2023-02-13T00:32:01.252Z,78
2023-02-13T00:36:01.995Z,78
2023-02-13T00:40:01.044Z,78
2023-02-13T00:44:01.112Z,78
2023-02-13T00:48:01.008Z,78
2023-02-13T00:52:00.969Z,78
2023-02-13T00:56:01.883Z,78
2023-02-13T01:00:01.235Z,78
2023-02-13T01:04:01.017Z,78
2023-02-13T01:08:01.236Z,78
2023-02-13T01:12:01.073Z,78
2023-02-13T01:16:01.180Z,78
2023-02-13T01:20:01.179Z,78
2023-02-13T01:24:02.427Z,78
2023-02-13T01:28:00.996Z,79
2023-02-13T01:32:04.347Z,79
2023-02-13T01:36:05.102Z,79
2023-02-13T01:40:00.946Z,79
2023-02-13T01:44:01.490Z,79
2023-02-13T01:48:06.039Z,79
2023-02-13T01:52:01.178Z,79
2023-02-13T01:56:02.488Z,79
2023-02-13T02:00:05.990Z,79
2023-02-13T02:04:05.186Z,79
2023-02-13T02:08:02.964Z,79
2023-02-13T02:12:03.810Z,79
2023-02-13T02:16:01.648Z,79
2023-02-13T02:20:08.591Z,80
2023-02-13T02:24:10.664Z,80
2023-02-13T02:28:06.563Z,81
2023-02-13T02:32:10.726Z,81
2023-02-13T02:36:10.789Z,81
2023-02-13T02:40:09.142Z,81
2023-02-13T02:44:07.571Z,81
2023-02-13T02:48:15.965Z,81
2023-02-13T02:52:03.380Z,81
2023-02-13T02:56:05.098Z,81
2023-02-13T03:00:10.927Z,82
2023-02-13T03:04:13.199Z,82
2023-02-13T03:08:01.783Z,82
2023-02-13T03:12:11.267Z,82
2023-02-13T03:16:10.818Z,82
2023-02-13T03:20:16.453Z,83
2023-02-13T03:24:03.472Z,83
2023-02-13T03:28:15.839Z,83
2023-02-13T03:32:06.110Z,83
2023-02-13T03:36:14.736Z,83
2023-02-13T03:40:04.306Z,84
2023-02-13T03:44:07.666Z,84
2023-02-13T03:48:08.881Z,84
2023-02-13T03:52:04.318Z,84
2023-02-13T03:56:11.329Z,84
2023-02-13T04:00:02.442Z,85
2023-02-13T04:04:04.735Z,85
2023-02-13T04:08:01.168Z,85
2023-02-13T04:12:05.105Z,85
2023-02-13T04:16:03.410Z,85
2023-02-13T04:20:01.035Z,84
2023-02-13T04:24:01.213Z,84
2023-02-13T04:28:00.974Z,83
2023-02-13T04:32:01.225Z,83
2023-02-13T04:36:00.959Z,83
2023-02-13T04:40:00.962Z,82
2023-02-13T04:44:01.164Z,82
2023-02-13T04:48:01.224Z,81
2023-02-13T04:52:00.963Z,81
2023-02-13T04:56:01.163Z,81
2023-02-13T05:00:01.008Z,81
2023-02-13T05:04:01.081Z,81
2023-02-13T05:08:01.006Z,81
2023-02-13T05:12:01.186Z,81
2023-02-13T05:16:01.068Z,81
2023-02-13T05:20:01.242Z,81
2023-02-13T05:24:01.042Z,81
2023-02-13T05:28:01.192Z,82
2023-02-13T05:32:01.339Z,82
2023-02-13T05:36:01.178Z,82
2023-02-13T05:40:00.881Z,82
2023-02-13T05:44:01.199Z,82
2023-02-13T05:48:01.026Z,82
2023-02-13T05:52:00.962Z,82
2023-02-13T05:56:01.769Z,82
2023-02-13T06:00:01.480Z,82
2023-02-13T06:04:04.133Z,82
2023-02-13T06:08:01.086Z,82
2023-02-13T06:12:00.973Z,82
2023-02-13T06:16:01.181Z,82
2023-02-13T06:20:01.047Z,82
2023-02-13T06:24:01.111Z,82
2023-02-13T06:28:00.961Z,82
2023-02-13T06:32:01.406Z,82
2023-02-13T06:36:01.002Z,82
2023-02-13T06:40:01.187Z,81
2023-02-13T06:44:00.939Z,81
2023-02-13T06:48:01.042Z,81
2023-02-13T06:52:01.004Z,81
2023-02-13T06:56:03.117Z,81
2023-02-13T07:00:04.891Z,81
2023-02-13T07:04:01.139Z,81
2023-02-13T07:08:00.985Z,80
2023-02-13T07:12:02.215Z,80
2023-02-13T07:16:01.013Z,80
2023-02-13T07:20:01.277Z,80
2023-02-13T07:24:01.094Z,80
2023-02-13T07:28:01.842Z,80
2023-02-13T07:32:01.125Z,80
2023-02-13T07:36:02.775Z,80
2023-02-13T07:40:08.763Z,80
2023-02-13T07:44:01.135Z,80
2023-02-13T07:48:01.005Z,79
2023-02-13T07:52:00.959Z,79
2023-02-13T07:56:04.167Z,79
2023-02-13T08:00:01.323Z,79
2023-02-13T08:04:00.993Z,79
2023-02-13T08:08:01.183Z,78
2023-02-13T08:12:01.011Z,78
2023-02-13T08:16:01.135Z,78
2023-02-13T08:20:01.020Z,78
2023-02-13T08:24:01.112Z,78
2023-02-13T08:28:01.218Z,78
2023-02-13T08:32:01.309Z,78
2023-02-13T08:36:01.994Z,78
2023-02-13T08:40:01.083Z,78
2023-02-13T08:44:01.021Z,78
2023-02-13T08:48:03.093Z,79
2023-02-13T08:52:01.316Z,79
2023-02-13T08:56:01.403Z,79
2023-02-13T09:00:01.157Z,79
2023-02-13T09:04:01.010Z,79
2023-02-13T09:08:02.973Z,78
2023-02-13T09:12:01.081Z,78
2023-02-13T09:16:01.801Z,78
2023-02-13T09:20:01.142Z,78
2023-02-13T09:24:00.941Z,78
2023-02-13T09:28:01.196Z,78
2023-02-13T09:32:01.089Z,78
2023-02-13T09:36:03.398Z,78
2023-02-13T09:40:00.908Z,78
2023-02-13T09:44:04.265Z,78
2023-02-13T09:48:00.939Z,77
2023-02-13T09:52:01.122Z,77
2023-02-13T09:56:05.362Z,77
2023-02-13T10:00:03.603Z,76
2023-02-13T10:04:09.301Z,76
2023-02-13T10:08:06.351Z,76
2023-02-13T10:12:11.288Z,76
2023-02-13T10:16:05.784Z,76
2023-02-13T10:20:02.546Z,75
2023-02-13T10:24:06.118Z,75
2023-02-13T10:28:05.624Z,74
2023-02-13T10:32:03.049Z,74
2023-02-13T10:36:04.561Z,74
2023-02-13T10:40:01.146Z,74
2023-02-13T10:44:10.740Z,74
2023-02-13T10:48:08.597Z,73
2023-02-13T10:52:05.159Z,73
2023-02-13T10:56:06.986Z,73
2023-02-13T11:00:03.975Z,72
2023-02-13T11:04:03.889Z,72
2023-02-13T11:08:02.446Z,71
2023-02-13T11:12:10.876Z,71
2023-02-13T11:16:03.151Z,71
2023-02-13T11:20:06.139Z,70
2023-02-13T11:24:01.375Z,70
2023-02-13T11:28:07.311Z,69
2023-02-13T11:32:03.518Z,69
2023-02-13T11:36:05.018Z,69
2023-02-13T11:40:10.673Z,69
2023-02-13T11:44:03.211Z,69
2023-02-13T11:48:08.184Z,68
2023-02-13T11:52:01.605Z,68
2023-02-13T11:56:02.782Z,68
2023-02-13T12:00:10.750Z,68
2023-02-13T12:04:02.812Z,68
2023-02-13T12:08:01.200Z,68
2023-02-13T12:12:02.782Z,68
2023-02-13T12:16:03.428Z,68
2023-02-13T12:20:01.523Z,68
2023-02-13T12:24:03.645Z,68
2023-02-13T12:28:06.242Z,68
2023-02-13T12:32:05.219Z,68
2023-02-13T12:36:05.312Z,68
2023-02-13T12:40:12.508Z,68
2023-02-13T12:44:06.578Z,68
2023-02-13T12:48:08.323Z,68
2023-02-13T12:52:10.563Z,68
2023-02-13T12:56:08.039Z,68
2023-02-13T13:00:10.782Z,67
2023-02-13T13:04:10.705Z,67
2023-02-13T13:08:10.730Z,66
2023-02-13T13:12:10.223Z,66
2023-02-13T13:16:04.200Z,66
2023-02-13T13:20:08.024Z,66
2023-02-13T13:24:05.292Z,66
2023-02-13T13:28:03.401Z,66
2023-02-13T13:32:01.862Z,66
2023-02-13T13:36:06.917Z,66
2023-02-13T13:40:04.966Z,65
2023-02-13T13:44:05.501Z,65
2023-02-13T13:48:10.716Z,64
2023-02-13T13:52:10.744Z,64
2023-02-13T13:56:05.003Z,64
2023-02-13T14:00:14.660Z,64
2023-02-13T14:04:02.817Z,64
2023-02-13T14:08:02.767Z,65
2023-02-13T14:12:11.483Z,65
2023-02-13T14:16:01.420Z,65
2023-02-13T14:20:01.041Z,65
2023-02-13T14:24:03.180Z,65
2023-02-13T14:28:02.344Z,64
2023-02-13T14:32:04.717Z,64
2023-02-13T14:36:02.828Z,64
2023-02-13T14:40:10.911Z,64
2023-02-13T14:44:01.204Z,64
2023-02-13T14:48:04.673Z,64
2023-02-13T14:52:02.413Z,64
2023-02-13T14:56:04.712Z,64
2023-02-13T15:00:03.872Z,64
2023-02-13T15:04:04.950Z,64
2023-02-13T15:08:04.621Z,65
2023-02-13T15:12:01.123Z,65
2023-02-13T15:16:03.217Z,65
2023-02-13T15:20:04.018Z,65
2023-02-13T15:24:01.194Z,65
2023-02-13T15:28:02.314Z,66
2023-02-13T15:32:10.782Z,66
2023-02-13T15:36:02.298Z,66
2023-02-13T15:40:10.656Z,68
2023-02-13T15:44:01.073Z,68
2023-02-13T15:48:01.135Z,68
2023-02-13T15:52:03.092Z,68
2023-02-13T15:56:02.529Z,68
2023-02-13T16:00:02.212Z,69
2023-02-13T16:04:02.786Z,69
2023-02-13T16:08:00.877Z,70
2023-02-13T16:12:03.295Z,70
2023-02-13T16:16:07.908Z,70
2023-02-13T16:20:02.230Z,71
2023-02-13T16:24:03.350Z,71
2023-02-13T16:28:02.151Z,71
2023-02-13T16:32:04.214Z,71
2023-02-13T16:36:11.600Z,71
2023-02-13T16:40:10.714Z,73
2023-02-13T16:44:01.273Z,73
2023-02-13T16:48:02.558Z,73
2023-02-13T16:52:11.417Z,73
2023-02-13T16:56:02.574Z,73
2023-02-13T17:00:03.479Z,73
2023-02-13T17:04:01.163Z,73
2023-02-13T17:08:00.981Z,74
2023-02-13T17:12:01.112Z,74
2023-02-13T17:16:01.068Z,74
2023-02-13T17:20:03.299Z,75
2023-02-13T17:24:01.506Z,75
2023-02-13T17:28:05.992Z,75
2023-02-13T17:32:01.229Z,75
2023-02-13T17:36:01.099Z,75
2023-02-13T17:40:01.143Z,76
2023-02-13T17:44:00.982Z,76
2023-02-13T17:48:01.261Z,76
2023-02-13T17:52:00.936Z,76
2023-02-13T17:56:01.030Z,76
2023-02-13T18:00:03.886Z,77
2023-02-13T18:04:01.081Z,77
2023-02-13T18:08:02.025Z,77
2023-02-13T18:12:06.127Z,77
2023-02-13T18:16:06.953Z,77
2023-02-13T18:20:01.010Z,78
2023-02-13T18:24:01.134Z,78
2023-02-13T18:28:01.067Z,78
2023-02-13T18:32:01.346Z,78
2023-02-13T18:36:01.529Z,78
2023-02-13T18:40:00.955Z,78
2023-02-13T18:44:00.996Z,78
2023-02-13T18:48:01.125Z,79
2023-02-13T18:52:01.459Z,79
2023-02-13T18:56:01.605Z,79
2023-02-13T19:00:01.406Z,80
2023-02-13T19:04:01.967Z,80
2023-02-13T19:08:01.131Z,80
2023-02-13T19:12:01.261Z,80
2023-02-13T19:16:03.101Z,80
2023-02-13T19:20:00.952Z,80
2023-02-13T19:24:01.879Z,80
2023-02-13T19:28:00.911Z,81
2023-02-13T19:32:00.963Z,81
2023-02-13T19:36:02.137Z,81
2023-02-13T19:40:00.966Z,82
2023-02-13T19:44:01.314Z,82
2023-02-13T19:48:01.180Z,82
2023-02-13T19:52:02.619Z,82
2023-02-13T19:56:01.716Z,82
2023-02-13T20:00:03.655Z,82
2023-02-13T20:04:00.974Z,82
2023-02-13T20:08:00.910Z,83
2023-02-13T20:12:01.153Z,83
2023-02-13T20:16:04.528Z,83
2023-02-13T20:20:01.008Z,83
2023-02-13T20:24:02.256Z,83
2023-02-13T20:28:01.116Z,83
2023-02-13T20:32:01.115Z,83
2023-02-13T20:36:06.776Z,83
2023-02-13T20:40:00.932Z,84
2023-02-13T20:44:02.746Z,84
2023-02-13T20:48:00.990Z,84
2023-02-13T20:52:01.050Z,84
2023-02-13T20:56:02.722Z,84
2023-02-13T21:00:01.234Z,84
2023-02-13T21:04:00.985Z,84
2023-02-13T21:08:01.101Z,84
2023-02-13T21:12:00.963Z,84
2023-02-13T21:16:03.233Z,84
2023-02-13T21:20:01.127Z,85
2023-02-13T21:24:02.711Z,85
2023-02-13T21:28:01.053Z,85
2023-02-13T21:32:01.799Z,85
2023-02-13T21:36:01.301Z,85
2023-02-13T21:40:00.908Z,85
2023-02-13T21:44:01.010Z,85
2023-02-13T21:48:01.104Z,85
2023-02-13T21:52:00.884Z,85
2023-02-13T21:56:01.578Z,85
2023-02-13T22:00:03.192Z,86
2023-02-13T22:04:02.309Z,86
2023-02-13T22:08:10.871Z,86
2023-02-13T22:12:02.676Z,86
2023-02-13T22:16:02.068Z,86
2023-02-13T22:20:01.107Z,86
2023-02-13T22:24:01.409Z,86
2023-02-13T22:28:00.950Z,86
2023-02-13T22:32:01.329Z,86
2023-02-13T22:36:01.337Z,86
2023-02-13T22:40:01.289Z,86
2023-02-13T22:44:01.013Z,86
2023-02-13T22:48:01.059Z,87
2023-02-13T22:52:01.024Z,87
2023-02-13T22:56:01.648Z,87
2023-02-13T23:00:01.000Z,87
2023-02-13T23:04:01.086Z,87
2023-02-13T23:08:01.100Z,87
2023-02-13T23:12:10.887Z,87
2023-02-13T23:16:01.096Z,87
2023-02-13T23:20:01.431Z,87
2023-02-13T23:24:00.972Z,87
2023-02-13T23:28:00.896Z,87
2023-02-13T23:32:01.345Z,87
2023-02-13T23:36:01.203Z,87
2023-02-13T23:40:01.049Z,87
2023-02-13T23:44:00.943Z,87
2023-02-13T23:48:01.065Z,88
2023-02-13T23:52:00.871Z,88
2023-02-13T23:56:01.013Z,88
